createdAt,value
2019-04-14T00:00:03.335Z,22.70
2019-04-14T00:02:40.495Z,23.33
2019-04-14T00:05:08.352Z,23.02
2019-04-14T00:07:36.367Z,23.50
2019-04-14T00:10:05.111Z,22.98
2019-04-14T00:12:33.738Z,22.87
2019-04-14T00:15:02.832Z,23.30
2019-04-14T00:17:30.882Z,22.90
2019-04-14T00:19:58.926Z,23.98
2019-04-14T00:22:29.180Z,24.40
2019-04-14T00:24:55.902Z,24.52
2019-04-14T00:27:23.966Z,23.95
2019-04-14T00:29:52.453Z,24.60
2019-04-14T00:32:20.482Z,23.65
2019-04-14T00:34:59.406Z,22.95
2019-04-14T00:40:43.182Z,24.30
2019-04-14T00:43:20.715Z,24.15
2019-04-14T00:45:53.144Z,23.62
2019-04-14T00:48:20.674Z,24.08
2019-04-14T00:50:47.393Z,24.67
2019-04-14T00:53:14.627Z,23.27
2019-04-14T00:55:42.702Z,23.90
2019-04-14T00:58:12.675Z,23.77
2019-04-14T01:00:40.750Z,23.50
2019-04-14T01:03:07.667Z,23.85
2019-04-14T01:05:36.017Z,23.95
2019-04-14T01:08:03.748Z,23.65
2019-04-14T01:10:32.187Z,23.83
2019-04-14T01:13:00.586Z,23.85
2019-04-14T01:15:29.034Z,24.25
2019-04-14T01:17:57.677Z,24.70
2019-04-14T01:20:25.779Z,24.33
2019-04-14T01:22:55.212Z,24.65
2019-04-14T01:25:22.002Z,24.20
2019-04-14T01:27:51.732Z,24.97
2019-04-14T01:30:19.839Z,25.30
2019-04-14T01:32:47.900Z,25.17
2019-04-14T01:35:15.891Z,25.88
2019-04-14T01:37:44.083Z,25.65
2019-04-14T01:40:12.083Z,25.52
2019-04-14T01:42:39.929Z,25.48
2019-04-14T01:45:08.032Z,24.93
2019-04-14T01:47:36.067Z,25.37
2019-04-14T01:50:04.123Z,24.73
2019-04-14T01:52:38.508Z,25.45
2019-04-14T01:55:09.184Z,25.95
2019-04-14T01:57:42.029Z,25.08
2019-04-14T02:00:24.991Z,25.75
2019-04-14T02:02:53.059Z,25.27
2019-04-14T02:05:21.318Z,25.27
2019-04-14T02:07:49.428Z,26.20
2019-04-14T02:10:17.316Z,26.08
2019-04-14T02:12:45.282Z,25.23
2019-04-14T02:15:13.398Z,25.02
2019-04-14T02:17:41.645Z,25.92
2019-04-14T02:20:10.056Z,26.25
2019-04-14T02:22:38.222Z,26.40
2019-04-14T02:25:06.282Z,25.75
2019-04-14T02:27:34.299Z,25.83
2019-04-14T02:30:04.066Z,25.27
2019-04-14T02:33:00.778Z,26.05
2019-04-14T02:35:29.695Z,25.95
2019-04-14T02:38:02.018Z,25.45
2019-04-14T02:40:33.415Z,25.05
2019-04-14T02:42:46.515Z,25.10
2019-04-14T02:45:19.882Z,24.27
2019-04-14T02:48:20.305Z,24.60
2019-04-14T02:50:14.197Z,24.48
2019-04-14T02:52:46.918Z,25.48
2019-04-14T02:57:30.519Z,24.90
2019-04-14T03:00:11.714Z,24.73
2019-04-14T03:07:45.781Z,25.40
2019-04-14T03:09:55.740Z,24.40
2019-04-14T03:12:34.651Z,25.37
2019-04-14T03:14:53.552Z,24.87
2019-04-14T03:20:07.423Z,25.02
2019-04-14T03:24:52.182Z,25.30
2019-04-14T03:27:45.922Z,24.77
2019-04-14T03:30:26.138Z,25.75
2019-04-14T03:33:11.029Z,25.35
2019-04-14T03:35:20.137Z,26.40
2019-04-14T03:40:01.784Z,26.15
2019-04-14T03:42:41.573Z,25.83
2019-04-14T03:44:56.471Z,26.67
2019-04-14T03:49:54.428Z,27.27
2019-04-14T03:52:22.177Z,26.73
2019-04-14T03:54:45.554Z,26.12
2019-04-14T03:56:53.728Z,26.08
2019-04-14T03:59:21.888Z,26.60
2019-04-14T04:01:50.074Z,25.65
2019-04-14T04:04:18.382Z,26.70
2019-04-14T04:06:46.392Z,26.33
2019-04-14T04:09:14.941Z,26.15
2019-04-14T04:11:43.295Z,26.65
2019-04-14T04:14:10.111Z,26.67
2019-04-14T04:19:38.337Z,26.30
2019-04-14T04:22:12.676Z,26.37
2019-04-14T04:24:41.065Z,26.33
2019-04-14T04:27:11.083Z,27.02
2019-04-14T04:29:57.014Z,27.00
2019-04-14T04:32:46.843Z,26.20
2019-04-14T04:35:15.296Z,26.40
2019-04-14T04:37:43.942Z,25.55
2019-04-14T04:40:15.701Z,26.55
2019-04-14T04:42:43.645Z,26.35
2019-04-14T04:45:10.738Z,26.80
2019-04-14T04:47:38.798Z,27.00
2019-04-14T04:50:06.854Z,26.55
2019-04-14T04:52:34.903Z,26.35
2019-04-14T04:55:02.969Z,27.23
2019-04-14T04:57:31.087Z,26.70
2019-04-14T05:00:00.498Z,27.15
2019-04-14T05:02:27.254Z,26.30
2019-04-14T05:04:56.910Z,26.55
2019-04-14T05:07:25.150Z,26.60
2019-04-14T05:10:09.047Z,25.80
2019-04-14T05:12:41.312Z,26.20
2019-04-14T05:15:14.223Z,26.73
2019-04-14T05:17:43.159Z,25.67
2019-04-14T05:20:11.626Z,25.67
2019-04-14T05:22:39.794Z,25.52
2019-04-14T05:25:07.981Z,25.37
2019-04-14T05:27:36.483Z,24.67
2019-04-14T05:30:04.632Z,24.52
2019-04-14T05:32:32.576Z,25.48
2019-04-14T05:35:01.054Z,24.52
2019-04-14T05:37:31.065Z,25.08
2019-04-14T05:39:57.963Z,24.30
2019-04-14T05:42:27.495Z,24.42
2019-04-14T05:44:54.195Z,24.83
2019-04-14T05:47:22.249Z,25.20
2019-04-14T05:49:53.484Z,24.80
2019-04-14T05:52:18.547Z,24.55
2019-04-14T05:54:47.193Z,24.65
2019-04-14T05:57:15.534Z,25.33
2019-04-14T05:59:44.060Z,24.98
2019-04-14T06:02:11.557Z,24.63
2019-04-14T06:04:39.659Z,23.85
2019-04-14T06:07:08.353Z,24.50
2019-04-14T06:09:36.426Z,24.33
2019-04-14T06:12:04.470Z,24.73
2019-04-14T06:14:33.278Z,24.25
2019-04-14T06:17:01.350Z,24.35
2019-04-14T06:19:37.030Z,23.87
2019-04-14T06:21:57.492Z,24.25
2019-04-14T06:24:25.595Z,23.92
2019-04-14T06:26:53.623Z,24.53
2019-04-14T06:29:21.703Z,24.23
2019-04-14T06:31:49.738Z,23.73
2019-04-14T06:34:28.469Z,23.85
2019-04-14T06:37:01.022Z,24.77
2019-04-14T06:39:31.546Z,23.65
2019-04-14T06:41:59.580Z,23.80
2019-04-14T06:44:27.648Z,24.63
2019-04-14T06:46:55.716Z,24.27
2019-04-14T06:49:23.764Z,23.98
2019-04-14T06:51:51.851Z,24.15
2019-04-14T06:54:19.894Z,24.63
2019-04-14T06:56:48.738Z,24.17
2019-04-14T06:59:16.874Z,24.15
2019-04-14T07:01:44.975Z,24.25
2019-04-14T07:04:13.114Z,23.85
2019-04-14T07:06:41.156Z,24.45
2019-04-14T07:09:09.255Z,23.62
2019-04-14T07:11:38.045Z,23.75
2019-04-14T07:14:06.842Z,23.50
2019-04-14T07:16:34.904Z,23.45
2019-04-14T07:19:02.948Z,23.58
2019-04-14T07:21:31.078Z,24.25
2019-04-14T07:23:59.115Z,23.95
2019-04-14T07:26:27.170Z,23.10
2019-04-14T07:28:57.004Z,23.55
2019-04-14T07:31:30.015Z,23.38
2019-04-14T07:34:03.774Z,23.48
2019-04-14T07:36:46.700Z,22.40
2019-04-14T07:39:25.210Z,23.92
2019-04-14T07:41:54.011Z,23.35
2019-04-14T07:44:34.918Z,22.67
2019-04-14T07:47:04.795Z,23.40
2019-04-14T07:49:40.523Z,22.98
2019-04-14T07:52:24.266Z,23.08
2019-04-14T07:54:53.935Z,23.10
2019-04-14T07:57:27.817Z,23.92
2019-04-14T08:00:00.818Z,22.73
2019-04-14T08:02:39.726Z,23.58
2019-04-14T08:05:07.770Z,22.87
2019-04-14T08:07:35.963Z,23.20
2019-04-14T08:10:04.789Z,23.83
2019-04-14T08:12:35.098Z,23.77
2019-04-14T08:15:01.808Z,23.37
2019-04-14T08:17:29.863Z,22.73
2019-04-14T08:19:58.647Z,23.73
2019-04-14T08:22:26.726Z,22.87
2019-04-14T08:24:54.799Z,23.05
2019-04-14T08:27:22.855Z,23.48
2019-04-14T08:29:50.942Z,23.67
2019-04-14T08:32:19.024Z,23.10
2019-04-14T08:34:47.059Z,23.10
2019-04-14T08:37:15.883Z,22.52
2019-04-14T08:39:44.758Z,22.33
2019-04-14T08:42:17.577Z,22.62
2019-04-14T08:44:45.633Z,22.92
2019-04-14T08:50:19.430Z,22.43
2019-04-14T08:53:04.185Z,21.90
2019-04-14T08:55:34.066Z,23.05
2019-04-14T08:58:04.345Z,22.55
2019-04-14T09:00:31.631Z,22.45
2019-04-14T09:03:05.495Z,21.50
2019-04-14T09:05:39.164Z,23.05
2019-04-14T09:08:09.041Z,22.03
2019-04-14T09:10:37.738Z,21.35
2019-04-14T09:13:05.779Z,22.15
2019-04-14T09:15:33.827Z,20.77
2019-04-14T09:18:01.874Z,22.37
2019-04-14T09:20:30.702Z,21.52
2019-04-14T09:22:58.859Z,21.85
2019-04-14T09:25:27.662Z,22.63
2019-04-14T09:27:55.751Z,22.17
2019-04-14T09:30:24.510Z,22.70
2019-04-14T09:32:52.576Z,22.08
2019-04-14T09:35:20.622Z,22.17
2019-04-14T09:37:48.746Z,22.27
2019-04-14T09:40:16.786Z,21.67
2019-04-14T09:42:44.838Z,22.02
2019-04-14T09:45:12.920Z,21.90
2019-04-14T09:47:40.994Z,21.95
2019-04-14T09:50:09.047Z,21.75
2019-04-14T09:52:38.587Z,20.97
2019-04-14T09:55:07.372Z,22.33
2019-04-14T09:57:35.466Z,23.27
2019-04-14T10:00:03.480Z,22.33
2019-04-14T10:02:32.334Z,22.50
2019-04-14T10:05:00.475Z,22.42
2019-04-14T10:07:28.527Z,22.13
2019-04-14T10:09:56.638Z,22.27
2019-04-14T10:12:24.780Z,22.55
2019-04-14T10:14:52.826Z,22.60
2019-04-14T10:17:21.694Z,22.13
2019-04-14T10:19:49.818Z,22.80
2019-04-14T10:22:17.862Z,22.30
2019-04-14T10:24:45.947Z,21.00
2019-04-14T10:27:14.036Z,21.23
2019-04-14T10:29:42.122Z,21.80
2019-04-14T10:32:10.137Z,21.30
2019-04-14T10:34:39.060Z,21.55
2019-04-14T10:37:07.120Z,20.67
2019-04-14T10:39:35.200Z,21.50
2019-04-14T10:42:04.079Z,22.20
2019-04-14T10:44:32.147Z,22.50
2019-04-14T10:47:00.224Z,21.87
2019-04-14T10:49:28.319Z,21.95
2019-04-14T10:51:56.412Z,22.27
2019-04-14T10:54:24.463Z,21.42
2019-04-14T10:56:52.610Z,21.52
2019-04-14T10:59:20.783Z,22.20
2019-04-14T11:01:48.819Z,21.37
2019-04-14T11:04:16.850Z,21.63
2019-04-14T11:06:46.846Z,21.62
2019-04-14T11:09:15.618Z,21.20
2019-04-14T11:11:43.721Z,21.10
2019-04-14T11:14:11.866Z,20.67
2019-04-14T11:16:39.935Z,21.12
2019-04-14T11:19:07.990Z,21.33
2019-04-14T11:21:42.368Z,20.90
2019-04-14T11:24:04.254Z,21.00
2019-04-14T11:26:33.137Z,20.55
2019-04-14T11:29:01.192Z,21.27
2019-04-14T11:31:45.110Z,21.65
2019-04-14T11:34:13.167Z,20.75
2019-04-14T11:36:46.892Z,19.67
2019-04-14T11:39:14.954Z,20.40
2019-04-14T11:41:43.056Z,20.88
2019-04-14T11:44:11.177Z,19.83
2019-04-14T11:46:39.950Z,20.87
2019-04-14T11:49:08.004Z,20.85
2019-04-14T11:51:36.814Z,20.33
2019-04-14T11:54:05.004Z,21.65
2019-04-14T11:56:33.239Z,21.25
2019-04-14T11:59:01.335Z,21.02
2019-04-14T12:01:35.052Z,20.83
2019-04-14T12:04:03.090Z,20.00
2019-04-14T12:09:36.422Z,18.77
2019-04-14T12:12:04.480Z,19.23
2019-04-14T12:14:32.571Z,20.37
2019-04-14T12:17:00.703Z,18.12
2019-04-14T12:19:28.760Z,18.73
2019-04-14T12:22:07.751Z,17.77
2019-04-14T12:24:25.017Z,17.67
2019-04-14T12:26:53.074Z,18.58
2019-04-14T12:29:21.412Z,20.40
2019-04-14T12:31:49.211Z,20.17
2019-04-14T12:34:18.378Z,20.63
2019-04-14T12:36:46.194Z,19.75
2019-04-14T12:39:16.775Z,19.07
2019-04-14T12:41:46.401Z,20.05
2019-04-14T12:44:20.926Z,19.92
2019-04-14T12:46:48.995Z,19.40
2019-04-14T12:49:18.962Z,20.12
2019-04-14T12:52:06.720Z,19.85
2019-04-14T12:54:34.830Z,19.55
2019-04-14T12:57:03.235Z,19.35
2019-04-14T12:59:31.263Z,18.85
2019-04-14T13:02:00.536Z,18.15
2019-04-14T13:04:28.578Z,18.45
2019-04-14T13:06:56.647Z,19.33
2019-04-14T13:09:24.802Z,18.90
2019-04-14T13:11:52.872Z,19.85
2019-04-14T13:14:20.934Z,19.73
2019-04-14T13:16:48.978Z,19.12
2019-04-14T13:19:17.817Z,19.58
2019-04-14T13:21:45.868Z,18.27
2019-04-14T13:24:13.942Z,18.58
2019-04-14T13:26:41.995Z,18.52
2019-04-14T13:29:10.119Z,19.10
2019-04-14T13:31:38.156Z,19.10
2019-04-14T13:34:06.345Z,19.00
2019-04-14T13:36:34.409Z,19.85
2019-04-14T13:39:02.434Z,19.40
2019-04-14T13:41:31.270Z,19.27
2019-04-14T13:43:59.310Z,20.00
2019-04-14T13:46:27.380Z,19.35
2019-04-14T13:48:55.463Z,18.80
2019-04-14T13:51:23.511Z,18.87
2019-04-14T13:53:51.627Z,18.33
2019-04-14T13:56:19.679Z,17.97
2019-04-14T13:58:47.739Z,17.30
2019-04-14T14:01:15.791Z,17.60
2019-04-14T14:03:44.702Z,17.25
2019-04-14T14:06:12.759Z,16.95
2019-04-14T14:08:40.870Z,17.48
2019-04-14T14:11:09.855Z,17.05
2019-04-14T14:13:37.892Z,17.13
2019-04-14T14:16:19.790Z,18.12
2019-04-14T14:18:48.585Z,17.53
2019-04-14T14:21:22.595Z,17.48
2019-04-14T14:23:51.417Z,17.90
2019-04-14T14:26:19.475Z,17.45
2019-04-14T14:28:47.518Z,17.27
2019-04-14T14:31:15.577Z,17.35
2019-04-14T14:33:45.364Z,17.50
2019-04-14T14:36:12.470Z,16.95
2019-04-14T14:38:40.526Z,17.47
2019-04-14T14:41:08.582Z,17.00
2019-04-14T14:43:37.503Z,17.73
2019-04-14T14:46:11.275Z,16.55
2019-04-14T14:48:41.206Z,17.50
2019-04-14T14:51:11.718Z,16.25
2019-04-14T14:53:39.763Z,16.85
2019-04-14T14:56:07.803Z,18.90
2019-04-14T14:58:35.959Z,17.92
2019-04-14T15:01:04.019Z,17.65
2019-04-14T15:03:32.070Z,16.77
2019-04-14T15:06:00.154Z,16.83
2019-04-14T15:08:28.203Z,17.30
2019-04-14T15:10:57.024Z,17.05
2019-04-14T15:13:25.105Z,17.40
2019-04-14T15:15:53.166Z,16.67
2019-04-14T15:18:21.234Z,17.60
2019-04-14T15:20:49.315Z,17.33
2019-04-14T15:23:24.693Z,16.70
2019-04-14T15:25:45.423Z,17.25
2019-04-14T15:28:15.648Z,17.52
2019-04-14T15:30:41.557Z,16.55
2019-04-14T15:33:09.635Z,16.90
2019-04-14T15:35:37.751Z,16.67
2019-04-14T15:38:06.036Z,16.70
2019-04-14T15:40:34.123Z,17.17
2019-04-14T15:43:02.162Z,16.52
2019-04-14T15:45:30.298Z,16.37
2019-04-14T15:47:59.276Z,16.43
2019-04-14T15:50:28.175Z,17.08
2019-04-14T15:52:56.212Z,19.33
2019-04-14T15:55:24.681Z,16.83
2019-04-14T15:57:56.733Z,16.48
2019-04-14T16:00:24.807Z,16.90
2019-04-14T16:02:55.688Z,16.65
2019-04-14T16:05:24.814Z,16.85
2019-04-14T16:07:55.532Z,16.30
2019-04-14T16:10:42.479Z,16.40
2019-04-14T16:13:13.062Z,16.33
2019-04-14T16:15:45.571Z,16.48
2019-04-14T16:18:19.386Z,16.20
2019-04-14T16:20:47.523Z,16.45
2019-04-14T16:23:16.443Z,15.50
2019-04-14T16:25:47.104Z,15.73
2019-04-14T16:28:15.175Z,16.02
2019-04-14T16:30:58.896Z,16.15
2019-04-14T16:33:29.568Z,16.23
2019-04-14T16:35:57.591Z,15.57
2019-04-14T16:38:25.915Z,15.25
2019-04-14T16:40:53.976Z,15.93
2019-04-14T16:43:22.818Z,14.90
2019-04-14T16:45:50.855Z,14.63
2019-04-14T16:48:18.942Z,15.68
2019-04-14T16:50:46.993Z,15.57
2019-04-14T16:53:20.626Z,15.43
2019-04-14T16:55:51.234Z,15.68
2019-04-14T16:58:20.210Z,15.15
2019-04-14T17:00:49.120Z,15.32
2019-04-14T17:03:17.195Z,15.88
2019-04-14T17:05:45.254Z,16.00
2019-04-14T17:08:14.231Z,15.80
2019-04-14T17:10:43.054Z,15.57
2019-04-14T17:13:11.110Z,20.13
2019-04-14T17:15:39.952Z,16.90
2019-04-14T17:18:14.561Z,16.50
2019-04-14T17:20:48.279Z,16.55
2019-04-14T17:23:16.353Z,15.68
2019-04-14T17:25:44.998Z,17.17
2019-04-14T17:28:17.784Z,15.05
2019-04-14T17:30:55.783Z,15.70
2019-04-14T17:33:26.439Z,16.08
2019-04-14T17:36:00.229Z,16.23
2019-04-14T17:38:28.205Z,16.30
2019-04-14T17:41:02.119Z,16.52
2019-04-14T17:43:30.611Z,16.43
2019-04-14T17:45:58.638Z,16.33
2019-04-14T17:48:31.703Z,15.85
2019-04-14T17:51:03.477Z,16.27
2019-04-14T17:53:46.257Z,15.77
2019-04-14T17:59:09.331Z,16.00
2019-04-14T18:01:40.737Z,16.00
2019-04-14T18:04:14.455Z,16.60
2019-04-14T18:06:47.355Z,16.60
2019-04-14T18:09:19.319Z,16.25
2019-04-14T18:11:50.790Z,16.10
2019-04-14T18:14:20.583Z,16.45
2019-04-14T18:16:50.172Z,16.45
2019-04-14T18:19:22.266Z,16.00
2019-04-14T18:21:51.074Z,16.62
2019-04-14T18:24:19.134Z,17.45
2019-04-14T18:26:47.190Z,16.80
2019-04-14T18:32:15.806Z,16.23
2019-04-14T18:34:54.742Z,16.27
2019-04-14T18:37:25.394Z,16.70
2019-04-14T18:39:59.271Z,16.55
2019-04-14T18:42:28.080Z,16.13
2019-04-14T18:44:56.127Z,16.23
2019-04-14T18:47:26.774Z,15.97
2019-04-14T18:49:58.495Z,16.73
2019-04-14T18:52:48.076Z,16.95
2019-04-14T18:55:37.765Z,16.37
2019-04-14T18:58:24.595Z,16.48
2019-04-14T19:00:55.238Z,17.33
2019-04-14T19:03:23.315Z,29.23
2019-04-14T19:05:51.387Z,24.17
2019-04-14T19:08:19.536Z,17.65
2019-04-14T19:10:53.399Z,17.08
2019-04-14T19:13:24.059Z,16.35
2019-04-14T19:15:56.771Z,16.65
2019-04-14T19:18:26.627Z,16.25
2019-04-14T19:20:55.943Z,16.75
2019-04-14T19:23:24.867Z,16.42
2019-04-14T19:25:53.934Z,16.35
2019-04-14T19:28:22.035Z,16.50
2019-04-14T19:30:50.197Z,17.27
2019-04-14T19:33:18.255Z,17.58
2019-04-14T19:35:46.298Z,17.55
2019-04-14T19:38:15.135Z,17.35
2019-04-14T19:40:43.199Z,17.02
2019-04-14T19:43:22.909Z,17.65
2019-04-14T19:45:39.330Z,17.60
2019-04-14T19:48:07.441Z,18.00
2019-04-14T19:50:35.503Z,17.35
2019-04-14T19:53:03.563Z,17.53
2019-04-14T19:55:31.711Z,17.48
2019-04-14T19:57:59.810Z,16.15
2019-04-14T20:00:27.857Z,15.77
2019-04-14T20:02:55.891Z,16.05
2019-04-14T20:05:24.722Z,16.90
2019-04-14T20:07:52.774Z,16.00
2019-04-14T20:10:20.962Z,17.55
2019-04-14T20:12:49.003Z,17.50
2019-04-14T20:15:26.938Z,15.77
2019-04-14T20:17:56.582Z,15.85
2019-04-14T20:20:30.490Z,15.40
2019-04-14T20:23:04.369Z,16.20
2019-04-14T20:25:38.995Z,16.02
2019-04-14T20:28:09.507Z,15.98
2019-04-14T20:30:52.442Z,15.80
2019-04-14T20:33:20.454Z,15.67
2019-04-14T20:35:49.370Z,16.08
2019-04-14T20:38:17.415Z,16.67
2019-04-14T20:40:46.243Z,15.88
2019-04-14T20:43:14.301Z,16.12
2019-04-14T20:45:43.078Z,16.60
2019-04-14T20:48:11.157Z,16.23
2019-04-14T20:50:39.239Z,15.95
2019-04-14T20:53:07.309Z,16.05
2019-04-14T20:55:46.140Z,16.30
2019-04-14T20:58:03.428Z,15.70
2019-04-14T21:00:32.239Z,15.47
2019-04-14T21:03:16.098Z,15.73
2019-04-14T21:05:45.567Z,15.13
2019-04-14T21:08:20.208Z,15.30
2019-04-14T21:10:51.163Z,14.98
2019-04-14T21:13:22.826Z,15.60
2019-04-14T21:15:52.450Z,15.82
2019-04-14T21:18:22.187Z,15.38
2019-04-14T21:20:54.072Z,15.83
2019-04-14T21:23:25.772Z,15.52
2019-04-14T21:26:00.407Z,14.75
2019-04-14T21:28:24.711Z,14.57
2019-04-14T21:30:55.958Z,13.90
2019-04-14T21:36:23.763Z,14.00
2019-04-14T21:38:57.558Z,14.68
2019-04-14T21:41:25.590Z,13.98
2019-04-14T21:43:53.650Z,14.23
2019-04-14T21:46:21.706Z,14.00
2019-04-14T21:48:49.792Z,14.10
2019-04-14T21:51:17.860Z,14.57
2019-04-14T21:53:45.916Z,14.18
2019-04-14T21:56:14.024Z,13.88
2019-04-14T21:58:42.443Z,13.90
2019-04-14T22:01:33.701Z,13.88
2019-04-14T22:04:01.792Z,13.65
2019-04-14T22:06:31.506Z,13.70
2019-04-14T22:09:00.365Z,13.68
2019-04-14T22:11:28.525Z,13.65
2019-04-14T22:13:56.587Z,13.52
2019-04-14T22:16:24.635Z,13.48
2019-04-14T22:18:52.703Z,13.30
2019-04-14T22:21:20.771Z,13.23
2019-04-14T22:24:00.660Z,13.55
2019-04-14T22:26:25.893Z,13.43
2019-04-14T22:28:44.990Z,12.95
2019-04-14T22:31:13.035Z,13.27
2019-04-14T22:33:41.967Z,13.90
2019-04-14T22:36:10.012Z,13.73
2019-04-14T22:38:38.064Z,13.40
2019-04-14T22:41:06.138Z,12.60
2019-04-14T22:43:34.234Z,13.95
2019-04-14T22:46:02.280Z,13.15
2019-04-14T22:48:31.186Z,13.45
2019-04-14T22:50:59.312Z,13.90
2019-04-14T22:53:27.343Z,13.32
2019-04-14T22:55:56.124Z,13.30
2019-04-14T22:58:24.191Z,13.50
2019-04-14T23:00:52.810Z,13.32
2019-04-14T23:03:26.604Z,13.55
2019-04-14T23:05:56.465Z,13.00
2019-04-14T23:08:29.098Z,13.20
2019-04-14T23:11:02.818Z,13.25
2019-04-14T23:13:32.715Z,13.32
2019-04-14T23:16:00.721Z,13.27
2019-04-14T23:18:29.545Z,13.10
2019-04-14T23:20:57.623Z,13.48
2019-04-14T23:23:41.486Z,13.80
2019-04-14T23:26:09.551Z,13.57
2019-04-14T23:28:37.686Z,13.93
2019-04-14T23:31:05.747Z,13.40
2019-04-14T23:33:35.403Z,13.60
2019-04-14T23:36:03.445Z,13.77
2019-04-14T23:38:31.478Z,13.27
2019-04-14T23:41:00.394Z,13.80
2019-04-14T23:43:28.500Z,13.85
2019-04-14T23:45:56.547Z,14.15
2019-04-14T23:48:25.426Z,14.25
2019-04-14T23:50:53.508Z,14.45
2019-04-14T23:53:21.583Z,14.10
2019-04-14T23:55:50.458Z,14.30
2019-04-14T23:58:18.557Z,14.25
